Jolly Good — V7UG7 — position and weather

sailwx.info

Track history (hours):
 
Tides and Currents Weather Stations Pressure Air Temp Water Temp Dewpoint Dewpoint Depression Visibility Wind Speed Wind Dir Waves Ship Positions

Jolly Good

Last reported at 2018-Feb-18 15:38 UTC. Time now 2018-Feb-19 00:25 UTC.
Position N 05°34' E 100°15'.

Length 190 m; draft 6.4 m.

Type: Cargo ship. MMSI: 538007006.

Date/timePositionNaut miles runAvg speedWind from/ knotsBaromVisibWave heightAir tempDewpointWater temp
2018-Feb-18 15:38N 05°34' E 100°15'2 9.6
2018-Feb-18 15:27N 05°33' E 100°16'4 9.5
2018-Feb-18 15:00N 05°31' E 100°19'510.6
2018-Feb-18 14:30N 05°26' E 100°21'1 1.8
2018-Feb-18 14:00N 05°25' E 100°21'0 0.1
2018-Feb-18 13:16N 05°25' E 100°21'0 0.0
2018-Feb-18 12:52N 05°25' E 100°21'0 0.0
2018-Feb-18 11:49N 05°25' E 100°21'1 3.2
2018-Feb-18 11:30N 05°24' E 100°22'1 0.2
2018-Feb-18 08:08N 05°23' E 100°22'0 0.0
2018-Feb-18 07:50N 05°23' E 100°22'0 0.0
2018-Feb-18 07:26N 05°23' E 100°22'0 0.0
2018-Feb-18 06:50N 05°23' E 100°22'0 0.0
2018-Feb-18 06:26N 05°23' E 100°22'0 0.0
2018-Feb-18 05:56N 05°23' E 100°22'0 0.0
2018-Feb-18 05:26N 05°23' E 100°22'0 0.0
2018-Feb-18 04:56N 05°23' E 100°22'0 0.0
2018-Feb-18 04:26N 05°23' E 100°22'0 0.0
2018-Feb-18 03:49N 05°23' E 100°22'0 0.7
2018-Feb-18 03:30N 05°23' E 100°22'2 3.7
2018-Feb-18 03:00N 05°25' E 100°21'0 0.3
2018-Feb-18 02:30N 05°25' E 100°21'0 0.0
2018-Feb-18 02:00N 05°25' E 100°21'0 0.0
2018-Feb-18 01:24N 05°25' E 100°21'0 0.0
2018-Feb-18 01:00N 05°25' E 100°21'0 0.0
2018-Feb-17 23:42N 05°25' E 100°21'0 0.1
2018-Feb-17 23:30N 05°25' E 100°21'0 0.0
2018-Feb-17 23:00N 05°25' E 100°21'0 0.1
2018-Feb-17 22:00N 05°25' E 100°21'0 0.2
2018-Feb-17 21:12N 05°25' E 100°21'0 0.2
2018-Feb-17 20:52N 05°25' E 100°21'1 2.8
2018-Feb-17 20:30N 05°24' E 100°22'1 0.1
2018-Feb-17 14:44N 05°23' E 100°22'0 0.0
2018-Feb-17 11:02N 05°23' E 100°22'0 0.0
2018-Feb-17 05:26N 05°23' E 100°22'0 0.0
2018-Feb-17 04:07N 05°23' E 100°22'0 0.5
2018-Feb-17 03:59N 05°23' E 100°22'2 2.9
2018-Feb-17 03:28N 05°25' E 100°21'2 3.5
2018-Feb-17 02:54N 05°27' E 100°21'0 0.0
2018-Feb-17 01:18N 05°27' E 100°21'0 0.0
2018-Feb-17 00:54N 05°27' E 100°21'0 0.0
2018-Feb-17 00:30N 05°27' E 100°21'0 0.0
2018-Feb-17 00:00N 05°27' E 100°21'0 0.0
2018-Feb-16 23:30N 05°27' E 100°21'0 0.1
2018-Feb-16 22:48N 05°27' E 100°21'0 0.9
2018-Feb-16 22:30N 05°26' E 100°21'3 5.4
2018-Feb-16 22:00N 05°24' E 100°22'1 0.1
2018-Feb-16 15:03N 05°23' E 100°22'0 0.0
2018-Feb-16 14:45N 05°23' E 100°22'0 0.0
2018-Feb-16 14:15N 05°23' E 100°22'0 0.0
2018-Feb-16 13:45N 05°23' E 100°22'0 0.0
2018-Feb-16 13:27N 05°23' E 100°22'0 0.0
2018-Feb-16 12:57N 05°23' E 100°22'0 0.0
2018-Feb-16 12:27N 05°23' E 100°22'0 0.0
2018-Feb-16 11:57N 05°23' E 100°22'0 0.0
2018-Feb-16 11:27N 05°23' E 100°22'0 0.0
2018-Feb-16 10:51N 05°23' E 100°22'0 0.0
2018-Feb-16 10:27N 05°23' E 100°22'0 0.0
2018-Feb-16 09:57N 05°23' E 100°22'0 0.0
2018-Feb-16 03:03N 05°23' E 100°22'0 0.0
2018-Feb-16 02:39N 05°23' E 100°22'0 0.0
2018-Feb-16 02:15N 05°23' E 100°22'0 0.0
2018-Feb-16 01:57N 05°23' E 100°22'0 0.0
2018-Feb-16 01:27N 05°23' E 100°22'0 0.0
2018-Feb-16 00:57N 05°23' E 100°22'0 0.0
2018-Feb-16 00:27N 05°23' E 100°22'0 0.0
2018-Feb-15 23:57N 05°23' E 100°22'0 0.0
2018-Feb-15 23:15N 05°23' E 100°22'0 0.0
2018-Feb-15 13:28N 05°23' E 100°22'0 0.0
2018-Feb-15 12:58N 05°23' E 100°22'0 0.0
2018-Feb-15 12:04N 05°23' E 100°22'0 0.0
2018-Feb-15 11:52N 05°23' E 100°22'0 0.0
2018-Feb-15 11:10N 05°23' E 100°22'0 0.0
2018-Feb-15 10:58N 05°23' E 100°22'0 0.0
2018-Feb-15 10:28N 05°23' E 100°22'0 0.0
2018-Feb-15 09:46N 05°23' E 100°22'0 0.0
2018-Feb-15 09:28N 05°23' E 100°22'0 0.0
2018-Feb-15 07:52N 05°23' E 100°22'0 0.1
2018-Feb-15 07:28N 05°23' E 100°22'0 0.0
2018-Feb-15 06:58N 05°23' E 100°22'0 0.0
2018-Feb-15 03:46N 05°23' E 100°22'0 0.0
2018-Feb-15 03:22N 05°23' E 100°22'0 0.0
2018-Feb-15 01:40N 05°23' E 100°22'0 0.0
2018-Feb-15 01:28N 05°23' E 100°22'0 0.0
2018-Feb-15 00:58N 05°23' E 100°22'0 0.0
2018-Feb-15 00:28N 05°23' E 100°22'0 0.0
2018-Feb-14 23:46N 05°23' E 100°22'0 0.0
2018-Feb-14 23:28N 05°23' E 100°22'0 0.0
2018-Feb-14 22:28N 05°23' E 100°22'0 0.0
2018-Feb-14 21:58N 05°23' E 100°22'0 0.0
2018-Feb-14 11:52N 05°23' E 100°22'0 0.0
2018-Feb-14 11:22N 05°23' E 100°22'0 0.0
2018-Feb-14 10:46N 05°23' E 100°22'0 0.0
2018-Feb-14 10:28N 05°23' E 100°22'0 0.0
2018-Feb-14 09:58N 05°23' E 100°22'0 0.0
2018-Feb-14 09:28N 05°23' E 100°22'0 0.0
2018-Feb-14 08:40N 05°23' E 100°22'0 0.0
2018-Feb-14 08:28N 05°23' E 100°22'0 0.0
2018-Feb-14 07:58N 05°23' E 100°22'0 0.0
2018-Feb-14 07:22N 05°23' E 100°22'0 0.0
2018-Feb-14 06:58N 05°23' E 100°22'0 0.0
2018-Feb-14 06:28N 05°23' E 100°22'0 0.0
2018-Feb-14 05:40N 05°23' E 100°22'0 0.0
2018-Feb-14 05:28N 05°23' E 100°22'0 0.0
2018-Feb-14 04:58N 05°23' E 100°22'0 0.0
2018-Feb-14 04:22N 05°23' E 100°22'0 0.0
2018-Feb-14 03:58N 05°23' E 100°22'0 0.0
2018-Feb-14 03:28N 05°23' E 100°22'0 0.0
2018-Feb-13 23:10N 05°23' E 100°22'0 0.0
2018-Feb-13 22:58N 05°23' E 100°22'0 0.0
2018-Feb-13 22:28N 05°23' E 100°22'0 0.0
2018-Feb-13 21:58N 05°23' E 100°22'0 0.0
2018-Feb-13 14:08N 05°23' E 100°22'0 1.0
2018-Feb-13 14:01N 05°23' E 100°22'2 0.4
2018-Feb-13 09:44N 05°25' E 100°21'0 0.2
2018-Feb-13 09:26N 05°25' E 100°21'0 0.0
2018-Feb-13 08:56N 05°25' E 100°21'0 0.2
2018-Feb-13 08:26N 05°25' E 100°21'0 0.3
2018-Feb-13 07:56N 05°24' E 100°21'0 0.0
2018-Feb-13 07:26N 05°24' E 100°21'0 0.0
2018-Feb-13 06:56N 05°24' E 100°21'0 0.0
2018-Feb-13 06:08N 05°24' E 100°21'0 0.0
2018-Feb-13 05:50N 05°24' E 100°21'0 0.0
2018-Feb-13 05:26N 05°24' E 100°21'0 0.0
2018-Feb-13 04:50N 05°24' E 100°21'0 0.0
2018-Feb-13 04:26N 05°24' E 100°21'0 0.0
2018-Feb-13 03:56N 05°24' E 100°21'0 0.0
2018-Feb-13 03:26N 05°24' E 100°21'0 0.0
2018-Feb-13 02:50N 05°24' E 100°21'0 0.0
2018-Feb-13 02:26N 05°24' E 100°21'0 0.1
2018-Feb-13 01:44N 05°24' E 100°21'0 0.1
2018-Feb-13 00:26N 05°25' E 100°21'0 0.1
2018-Feb-12 23:50N 05°25' E 100°21'0 0.0
2018-Feb-12 23:20N 05°25' E 100°21'0 0.0
2018-Feb-12 22:50N 05°25' E 100°21'0 0.0
2018-Feb-12 22:26N 05°25' E 100°21'0 0.0
2018-Feb-12 21:44N 05°25' E 100°21'0 0.0
2018-Feb-12 21:14N 05°25' E 100°21'0 0.0
2018-Feb-12 20:56N 05°25' E 100°21'0 0.0
2018-Feb-12 20:20N 05°25' E 100°21'0 0.1
2018-Feb-12 19:56N 05°25' E 100°21'0 0.2
2018-Feb-12 19:20N 05°25' E 100°21'0 0.2
2018-Feb-12 18:50N 05°24' E 100°21'0 0.1
2018-Feb-12 18:08N 05°24' E 100°21'0 0.0
2018-Feb-12 17:56N 05°24' E 100°21'0 0.0
2018-Feb-12 17:26N 05°24' E 100°21'0 0.0
2018-Feb-12 16:56N 05°24' E 100°21'0 0.0
2018-Feb-12 16:26N 05°24' E 100°21'0 0.0
2018-Feb-12 15:14N 05°24' E 100°21'0 0.2
2018-Feb-12 14:56N 05°24' E 100°21'0 0.1
2018-Feb-12 14:26N 05°24' E 100°21'0 0.0
2018-Feb-12 13:56N 05°24' E 100°21'0 0.1
2018-Feb-12 13:20N 05°24' E 100°21'0 0.1
2018-Feb-12 12:50N 05°25' E 100°21'0 0.1
2018-Feb-12 10:56N 05°25' E 100°21'0 0.0
2018-Feb-12 07:44N 05°24' E 100°21'0 0.0
2018-Feb-12 05:26N 05°24' E 100°21'0 0.1
2018-Feb-12 04:56N 05°24' E 100°21'0 0.0
2018-Feb-12 04:26N 05°24' E 100°21'0 0.0
2018-Feb-12 03:56N 05°24' E 100°21'0 0.0
2018-Feb-12 03:14N 05°24' E 100°21'0 0.0
2018-Feb-12 02:44N 05°24' E 100°21'0 0.0
2018-Feb-12 02:26N 05°24' E 100°21'0 0.1
2018-Feb-12 01:56N 05°24' E 100°21'0 0.0
2018-Feb-12 01:26N 05°24' E 100°21'0 0.1
2018-Feb-12 00:56N 05°24' E 100°21'0 0.2
2018-Feb-12 00:26N 05°25' E 100°21'0 0.0
2018-Feb-11 22:56N 05°25' E 100°21'0 0.1
2018-Feb-11 21:50N 05°25' E 100°21'0 0.0
2018-Feb-11 21:26N 05°25' E 100°21'0 0.0
2018-Feb-11 20:44N 05°25' E 100°21'0 0.0
2018-Feb-11 20:26N 05°25' E 100°21'0 0.2
2018-Feb-11 19:56N 05°25' E 100°21'0 0.2
2018-Feb-11 19:26N 05°24' E 100°21'0 0.1
2018-Feb-11 18:50N 05°24' E 100°21'0 0.0
2018-Feb-11 18:26N 05°24' E 100°21'0 0.1
2018-Feb-11 17:44N 05°24' E 100°21'0 0.0
2018-Feb-11 17:26N 05°24' E 100°21'0 0.0
2018-Feb-11 16:56N 05°24' E 100°21'0 0.0
2018-Feb-11 16:26N 05°24' E 100°21'0 0.0
2018-Feb-11 15:56N 05°24' E 100°21'0 0.0
2018-Feb-11 15:26N 05°24' E 100°21'0 0.0
2018-Feb-11 12:44N 05°24' E 100°21'0 0.0
2018-Feb-11 11:38N 05°24' E 100°21'0 0.1
2018-Feb-11 11:26N 05°24' E 100°21'0 0.1
2018-Feb-11 10:50N 05°24' E 100°21'0 0.2
2018-Feb-11 10:26N 05°25' E 100°21'0 0.1
2018-Feb-11 09:56N 05°25' E 100°21'0 0.1
2018-Feb-11 08:32N 05°25' E 100°21'0 0.7
2018-Feb-11 08:26N 05°25' E 100°21'2 3.7
2018-Feb-11 08:00N 05°23' E 100°22'0 0.0
2018-Feb-11 07:26N 05°23' E 100°22'0 0.0
2018-Feb-11 06:44N 05°23' E 100°22'0 0.0
2018-Feb-11 06:26N 05°23' E 100°22'0 0.0
2018-Feb-11 05:56N 05°23' E 100°22'0 0.0
2018-Feb-11 05:26N 05°23' E 100°22'0 0.0
2018-Feb-11 04:56N 05°23' E 100°22'0 0.0
2018-Feb-11 04:26N 05°23' E 100°22'0 0.0
2018-Feb-11 03:56N 05°23' E 100°22'0 0.0
2018-Feb-11 03:20N 05°23' E 100°22'0 0.0
2018-Feb-11 02:56N 05°23' E 100°22'0 0.0
2018-Feb-11 02:20N 05°23' E 100°22'0 0.0
2018-Feb-11 01:56N 05°23' E 100°22'0 0.0
2018-Feb-11 01:26N 05°23' E 100°22'0 0.0
2018-Feb-10 23:38N 05°23' E 100°22'0 0.0
2018-Feb-10 23:20N 05°23' E 100°22'0 0.0
2018-Feb-10 22:56N 05°23' E 100°22'0 0.0
2018-Feb-10 22:26N 05°23' E 100°22'0 0.0
2018-Feb-10 21:20N 05°23' E 100°22'0 0.0
2018-Feb-10 20:56N 05°23' E 100°22'0 0.0
2018-Feb-10 20:26N 05°23' E 100°22'0 0.0
2018-Feb-10 19:56N 05°23' E 100°22'0 0.0
2018-Feb-10 19:20N 05°23' E 100°22'0 0.0
2018-Feb-10 18:50N 05°23' E 100°22'0 0.0
2018-Feb-10 18:26N 05°23' E 100°22'0 0.0
2018-Feb-10 17:44N 05°23' E 100°22'0 0.0
2018-Feb-10 17:14N 05°23' E 100°22'0 0.0
2018-Feb-10 16:50N 05°23' E 100°22'0 0.0
2018-Feb-10 16:26N 05°23' E 100°22'0 0.0
2018-Feb-10 15:56N 05°23' E 100°22'0 0.0
2018-Feb-10 15:26N 05°23' E 100°22'0 0.0
2018-Feb-10 14:56N 05°23' E 100°22'0 0.0
2018-Feb-10 13:32N 05°23' E 100°22'0 0.0
2018-Feb-10 12:26N 05°23' E 100°22'0 0.0
2018-Feb-10 11:08N 05°23' E 100°22'0 0.0
2018-Feb-10 10:56N 05°23' E 100°22'0 0.0
2018-Feb-10 10:20N 05°23' E 100°22'0 0.0
2018-Feb-10 09:50N 05°23' E 100°22'0 0.0
2018-Feb-10 09:26N 05°23' E 100°22'0 0.0
2018-Feb-10 08:56N 05°23' E 100°22'0 0.0
2018-Feb-10 08:26N 05°23' E 100°22'0 0.0
2018-Feb-10 07:56N 05°23' E 100°22'0 0.0
2018-Feb-10 07:26N 05°23' E 100°22'0 0.0
2018-Feb-10 06:56N 05°23' E 100°22'0 0.0
2018-Feb-10 06:26N 05°23' E 100°22'0 0.0
2018-Feb-10 05:56N 05°23' E 100°22'0 0.0
2018-Feb-10 05:26N 05°23' E 100°22'0 0.0
2018-Feb-10 04:56N 05°23' E 100°22'0 0.0
2018-Feb-10 04:26N 05°23' E 100°22'0 0.0
2018-Feb-10 03:56N 05°23' E 100°22'0 0.0
2018-Feb-10 03:26N 05°23' E 100°22'0 0.0
2018-Feb-10 02:56N 05°23' E 100°22'0 0.0
2018-Feb-10 02:26N 05°23' E 100°22'0 0.0
2018-Feb-10 01:56N 05°23' E 100°22'0 0.0
2018-Feb-10 01:26N 05°23' E 100°22'0 0.0
2018-Feb-10 00:56N 05°23' E 100°22'0 0.0
2018-Feb-10 00:26N 05°23' E 100°22'0 0.0
2018-Feb-09 23:56N 05°23' E 100°22'0 0.0
2018-Feb-09 23:26N 05°23' E 100°22'0 0.0
2018-Feb-09 22:56N 05°23' E 100°22'0 0.0
2018-Feb-09 22:38N 05°23' E 100°22'  
Track history (hours):
 
Tides and Currents Weather Stations Pressure Air Temp Water Temp Dewpoint Dewpoint Depression Visibility Wind Speed Wind Dir Waves Ship Positions

Jolly Good

Last reported at 2018-Feb-18 15:38 UTC. Time now 2018-Feb-19 00:25 UTC.
Position N 05°34' E 100°15'.

Length 190 m; draft 6.4 m.

Type: Cargo ship. MMSI: 538007006.

Date/timePositionNaut miles runAvg speedWind from/ knotsBaromVisibWave heightAir tempDewpointWater temp
2018-Feb-18 15:38N 05°34' E 100°15'2 9.6
2018-Feb-18 15:27N 05°33' E 100°16'4 9.5
2018-Feb-18 15:00N 05°31' E 100°19'510.6
2018-Feb-18 14:30N 05°26' E 100°21'1 1.8
2018-Feb-18 14:00N 05°25' E 100°21'0 0.1
2018-Feb-18 13:16N 05°25' E 100°21'0 0.0
2018-Feb-18 12:52N 05°25' E 100°21'0 0.0
2018-Feb-18 11:49N 05°25' E 100°21'1 3.2
2018-Feb-18 11:30N 05°24' E 100°22'1 0.2
2018-Feb-18 08:08N 05°23' E 100°22'0 0.0
2018-Feb-18 07:50N 05°23' E 100°22'0 0.0
2018-Feb-18 07:26N 05°23' E 100°22'0 0.0
2018-Feb-18 06:50N 05°23' E 100°22'0 0.0
2018-Feb-18 06:26N 05°23' E 100°22'0 0.0
2018-Feb-18 05:56N 05°23' E 100°22'0 0.0
2018-Feb-18 05:26N 05°23' E 100°22'0 0.0
2018-Feb-18 04:56N 05°23' E 100°22'0 0.0
2018-Feb-18 04:26N 05°23' E 100°22'0 0.0
2018-Feb-18 03:49N 05°23' E 100°22'0 0.7
2018-Feb-18 03:30N 05°23' E 100°22'2 3.7
2018-Feb-18 03:00N 05°25' E 100°21'0 0.3
2018-Feb-18 02:30N 05°25' E 100°21'0 0.0
2018-Feb-18 02:00N 05°25' E 100°21'0 0.0
2018-Feb-18 01:24N 05°25' E 100°21'0 0.0
2018-Feb-18 01:00N 05°25' E 100°21'0 0.0
2018-Feb-17 23:42N 05°25' E 100°21'0 0.1
2018-Feb-17 23:30N 05°25' E 100°21'0 0.0
2018-Feb-17 23:00N 05°25' E 100°21'0 0.1
2018-Feb-17 22:00N 05°25' E 100°21'0 0.2
2018-Feb-17 21:12N 05°25' E 100°21'0 0.2
2018-Feb-17 20:52N 05°25' E 100°21'1 2.8
2018-Feb-17 20:30N 05°24' E 100°22'1 0.1
2018-Feb-17 14:44N 05°23' E 100°22'0 0.0
2018-Feb-17 11:02N 05°23' E 100°22'0 0.0
2018-Feb-17 05:26N 05°23' E 100°22'0 0.0
2018-Feb-17 04:07N 05°23' E 100°22'0 0.5
2018-Feb-17 03:59N 05°23' E 100°22'2 2.9
2018-Feb-17 03:28N 05°25' E 100°21'2 3.5
2018-Feb-17 02:54N 05°27' E 100°21'0 0.0
2018-Feb-17 01:18N 05°27' E 100°21'0 0.0
2018-Feb-17 00:54N 05°27' E 100°21'0 0.0
2018-Feb-17 00:30N 05°27' E 100°21'0 0.0
2018-Feb-17 00:00N 05°27' E 100°21'0 0.0
2018-Feb-16 23:30N 05°27' E 100°21'0 0.1
2018-Feb-16 22:48N 05°27' E 100°21'0 0.9
2018-Feb-16 22:30N 05°26' E 100°21'3 5.4
2018-Feb-16 22:00N 05°24' E 100°22'1 0.1
2018-Feb-16 15:03N 05°23' E 100°22'0 0.0
2018-Feb-16 14:45N 05°23' E 100°22'0 0.0
2018-Feb-16 14:15N 05°23' E 100°22'0 0.0
2018-Feb-16 13:45N 05°23' E 100°22'0 0.0
2018-Feb-16 13:27N 05°23' E 100°22'0 0.0
2018-Feb-16 12:57N 05°23' E 100°22'0 0.0
2018-Feb-16 12:27N 05°23' E 100°22'0 0.0
2018-Feb-16 11:57N 05°23' E 100°22'0 0.0
2018-Feb-16 11:27N 05°23' E 100°22'0 0.0
2018-Feb-16 10:51N 05°23' E 100°22'0 0.0
2018-Feb-16 10:27N 05°23' E 100°22'0 0.0
2018-Feb-16 09:57N 05°23' E 100°22'0 0.0
2018-Feb-16 03:03N 05°23' E 100°22'0 0.0
2018-Feb-16 02:39N 05°23' E 100°22'0 0.0
2018-Feb-16 02:15N 05°23' E 100°22'0 0.0
2018-Feb-16 01:57N 05°23' E 100°22'0 0.0
2018-Feb-16 01:27N 05°23' E 100°22'0 0.0
2018-Feb-16 00:57N 05°23' E 100°22'0 0.0
2018-Feb-16 00:27N 05°23' E 100°22'0 0.0
2018-Feb-15 23:57N 05°23' E 100°22'0 0.0
2018-Feb-15 23:15N 05°23' E 100°22'0 0.0
2018-Feb-15 13:28N 05°23' E 100°22'0 0.0
2018-Feb-15 12:58N 05°23' E 100°22'0 0.0
2018-Feb-15 12:04N 05°23' E 100°22'0 0.0
2018-Feb-15 11:52N 05°23' E 100°22'0 0.0
2018-Feb-15 11:10N 05°23' E 100°22'0 0.0
2018-Feb-15 10:58N 05°23' E 100°22'0 0.0
2018-Feb-15 10:28N 05°23' E 100°22'0 0.0
2018-Feb-15 09:46N 05°23' E 100°22'0 0.0
2018-Feb-15 09:28N 05°23' E 100°22'0 0.0
2018-Feb-15 07:52N 05°23' E 100°22'0 0.1
2018-Feb-15 07:28N 05°23' E 100°22'0 0.0
2018-Feb-15 06:58N 05°23' E 100°22'0 0.0
2018-Feb-15 03:46N 05°23' E 100°22'0 0.0
2018-Feb-15 03:22N 05°23' E 100°22'0 0.0
2018-Feb-15 01:40N 05°23' E 100°22'0 0.0
2018-Feb-15 01:28N 05°23' E 100°22'0 0.0
2018-Feb-15 00:58N 05°23' E 100°22'0 0.0
2018-Feb-15 00:28N 05°23' E 100°22'0 0.0
2018-Feb-14 23:46N 05°23' E 100°22'0 0.0
2018-Feb-14 23:28N 05°23' E 100°22'0 0.0
2018-Feb-14 22:28N 05°23' E 100°22'0 0.0
2018-Feb-14 21:58N 05°23' E 100°22'0 0.0
2018-Feb-14 11:52N 05°23' E 100°22'0 0.0
2018-Feb-14 11:22N 05°23' E 100°22'0 0.0
2018-Feb-14 10:46N 05°23' E 100°22'0 0.0
2018-Feb-14 10:28N 05°23' E 100°22'0 0.0
2018-Feb-14 09:58N 05°23' E 100°22'0 0.0
2018-Feb-14 09:28N 05°23' E 100°22'0 0.0
2018-Feb-14 08:40N 05°23' E 100°22'0 0.0
2018-Feb-14 08:28N 05°23' E 100°22'0 0.0
2018-Feb-14 07:58N 05°23' E 100°22'0 0.0
2018-Feb-14 07:22N 05°23' E 100°22'0 0.0
2018-Feb-14 06:58N 05°23' E 100°22'0 0.0
2018-Feb-14 06:28N 05°23' E 100°22'0 0.0
2018-Feb-14 05:40N 05°23' E 100°22'0 0.0
2018-Feb-14 05:28N 05°23' E 100°22'0 0.0
2018-Feb-14 04:58N 05°23' E 100°22'0 0.0
2018-Feb-14 04:22N 05°23' E 100°22'0 0.0
2018-Feb-14 03:58N 05°23' E 100°22'0 0.0
2018-Feb-14 03:28N 05°23' E 100°22'0 0.0
2018-Feb-13 23:10N 05°23' E 100°22'0 0.0
2018-Feb-13 22:58N 05°23' E 100°22'0 0.0
2018-Feb-13 22:28N 05°23' E 100°22'0 0.0
2018-Feb-13 21:58N 05°23' E 100°22'0 0.0
2018-Feb-13 14:08N 05°23' E 100°22'0 1.0
2018-Feb-13 14:01N 05°23' E 100°22'2 0.4
2018-Feb-13 09:44N 05°25' E 100°21'0 0.2
2018-Feb-13 09:26N 05°25' E 100°21'0 0.0
2018-Feb-13 08:56N 05°25' E 100°21'0 0.2
2018-Feb-13 08:26N 05°25' E 100°21'0 0.3
2018-Feb-13 07:56N 05°24' E 100°21'0 0.0
2018-Feb-13 07:26N 05°24' E 100°21'0 0.0
2018-Feb-13 06:56N 05°24' E 100°21'0 0.0
2018-Feb-13 06:08N 05°24' E 100°21'0 0.0
2018-Feb-13 05:50N 05°24' E 100°21'0 0.0
2018-Feb-13 05:26N 05°24' E 100°21'0 0.0
2018-Feb-13 04:50N 05°24' E 100°21'0 0.0
2018-Feb-13 04:26N 05°24' E 100°21'0 0.0
2018-Feb-13 03:56N 05°24' E 100°21'0 0.0
2018-Feb-13 03:26N 05°24' E 100°21'0 0.0
2018-Feb-13 02:50N 05°24' E 100°21'0 0.0
2018-Feb-13 02:26N 05°24' E 100°21'0 0.1
2018-Feb-13 01:44N 05°24' E 100°21'0 0.1
2018-Feb-13 00:26N 05°25' E 100°21'0 0.1
2018-Feb-12 23:50N 05°25' E 100°21'0 0.0
2018-Feb-12 23:20N 05°25' E 100°21'0 0.0
2018-Feb-12 22:50N 05°25' E 100°21'0 0.0
2018-Feb-12 22:26N 05°25' E 100°21'0 0.0
2018-Feb-12 21:44N 05°25' E 100°21'0 0.0
2018-Feb-12 21:14N 05°25' E 100°21'0 0.0
2018-Feb-12 20:56N 05°25' E 100°21'0 0.0
2018-Feb-12 20:20N 05°25' E 100°21'0 0.1
2018-Feb-12 19:56N 05°25' E 100°21'0 0.2
2018-Feb-12 19:20N 05°25' E 100°21'0 0.2
2018-Feb-12 18:50N 05°24' E 100°21'0 0.1
2018-Feb-12 18:08N 05°24' E 100°21'0 0.0
2018-Feb-12 17:56N 05°24' E 100°21'0 0.0
2018-Feb-12 17:26N 05°24' E 100°21'0 0.0
2018-Feb-12 16:56N 05°24' E 100°21'0 0.0
2018-Feb-12 16:26N 05°24' E 100°21'0 0.0
2018-Feb-12 15:14N 05°24' E 100°21'0 0.2
2018-Feb-12 14:56N 05°24' E 100°21'0 0.1
2018-Feb-12 14:26N 05°24' E 100°21'0 0.0
2018-Feb-12 13:56N 05°24' E 100°21'0 0.1
2018-Feb-12 13:20N 05°24' E 100°21'0 0.1
2018-Feb-12 12:50N 05°25' E 100°21'0 0.1
2018-Feb-12 10:56N 05°25' E 100°21'0 0.0
2018-Feb-12 07:44N 05°24' E 100°21'0 0.0
2018-Feb-12 05:26N 05°24' E 100°21'0 0.1
2018-Feb-12 04:56N 05°24' E 100°21'0 0.0
2018-Feb-12 04:26N 05°24' E 100°21'0 0.0
2018-Feb-12 03:56N 05°24' E 100°21'0 0.0
2018-Feb-12 03:14N 05°24' E 100°21'0 0.0
2018-Feb-12 02:44N 05°24' E 100°21'0 0.0
2018-Feb-12 02:26N 05°24' E 100°21'0 0.1
2018-Feb-12 01:56N 05°24' E 100°21'0 0.0
2018-Feb-12 01:26N 05°24' E 100°21'0 0.1
2018-Feb-12 00:56N 05°24' E 100°21'0 0.2
2018-Feb-12 00:26N 05°25' E 100°21'0 0.0
2018-Feb-11 22:56N 05°25' E 100°21'0 0.1
2018-Feb-11 21:50N 05°25' E 100°21'0 0.0
2018-Feb-11 21:26N 05°25' E 100°21'0 0.0
2018-Feb-11 20:44N 05°25' E 100°21'0 0.0
2018-Feb-11 20:26N 05°25' E 100°21'0 0.2
2018-Feb-11 19:56N 05°25' E 100°21'0 0.2
2018-Feb-11 19:26N 05°24' E 100°21'0 0.1
2018-Feb-11 18:50N 05°24' E 100°21'0 0.0
2018-Feb-11 18:26N 05°24' E 100°21'0 0.1
2018-Feb-11 17:44N 05°24' E 100°21'0 0.0
2018-Feb-11 17:26N 05°24' E 100°21'0 0.0
2018-Feb-11 16:56N 05°24' E 100°21'0 0.0
2018-Feb-11 16:26N 05°24' E 100°21'0 0.0
2018-Feb-11 15:56N 05°24' E 100°21'0 0.0
2018-Feb-11 15:26N 05°24' E 100°21'0 0.0
2018-Feb-11 12:44N 05°24' E 100°21'0 0.0
2018-Feb-11 11:38N 05°24' E 100°21'0 0.1
2018-Feb-11 11:26N 05°24' E 100°21'0 0.1
2018-Feb-11 10:50N 05°24' E 100°21'0 0.2
2018-Feb-11 10:26N 05°25' E 100°21'0 0.1
2018-Feb-11 09:56N 05°25' E 100°21'0 0.1
2018-Feb-11 08:32N 05°25' E 100°21'0 0.7
2018-Feb-11 08:26N 05°25' E 100°21'2 3.7
2018-Feb-11 08:00N 05°23' E 100°22'0 0.0
2018-Feb-11 07:26N 05°23' E 100°22'0 0.0
2018-Feb-11 06:44N 05°23' E 100°22'0 0.0
2018-Feb-11 06:26N 05°23' E 100°22'0 0.0
2018-Feb-11 05:56N 05°23' E 100°22'0 0.0
2018-Feb-11 05:26N 05°23' E 100°22'0 0.0
2018-Feb-11 04:56N 05°23' E 100°22'0 0.0
2018-Feb-11 04:26N 05°23' E 100°22'0 0.0
2018-Feb-11 03:56N 05°23' E 100°22'0 0.0
2018-Feb-11 03:20N 05°23' E 100°22'0 0.0
2018-Feb-11 02:56N 05°23' E 100°22'0 0.0
2018-Feb-11 02:20N 05°23' E 100°22'0 0.0
2018-Feb-11 01:56N 05°23' E 100°22'0 0.0
2018-Feb-11 01:26N 05°23' E 100°22'0 0.0
2018-Feb-10 23:38N 05°23' E 100°22'0 0.0
2018-Feb-10 23:20N 05°23' E 100°22'0 0.0
2018-Feb-10 22:56N 05°23' E 100°22'0 0.0
2018-Feb-10 22:26N 05°23' E 100°22'0 0.0
2018-Feb-10 21:20N 05°23' E 100°22'0 0.0
2018-Feb-10 20:56N 05°23' E 100°22'0 0.0
2018-Feb-10 20:26N 05°23' E 100°22'0 0.0
2018-Feb-10 19:56N 05°23' E 100°22'0 0.0
2018-Feb-10 19:20N 05°23' E 100°22'0 0.0
2018-Feb-10 18:50N 05°23' E 100°22'0 0.0
2018-Feb-10 18:26N 05°23' E 100°22'0 0.0
2018-Feb-10 17:44N 05°23' E 100°22'0 0.0
2018-Feb-10 17:14N 05°23' E 100°22'0 0.0
2018-Feb-10 16:50N 05°23' E 100°22'0 0.0
2018-Feb-10 16:26N 05°23' E 100°22'0 0.0
2018-Feb-10 15:56N 05°23' E 100°22'0 0.0
2018-Feb-10 15:26N 05°23' E 100°22'0 0.0
2018-Feb-10 14:56N 05°23' E 100°22'0 0.0
2018-Feb-10 13:32N 05°23' E 100°22'0 0.0
2018-Feb-10 12:26N 05°23' E 100°22'0 0.0
2018-Feb-10 11:08N 05°23' E 100°22'0 0.0
2018-Feb-10 10:56N 05°23' E 100°22'0 0.0
2018-Feb-10 10:20N 05°23' E 100°22'0 0.0
2018-Feb-10 09:50N 05°23' E 100°22'0 0.0
2018-Feb-10 09:26N 05°23' E 100°22'0 0.0
2018-Feb-10 08:56N 05°23' E 100°22'0 0.0
2018-Feb-10 08:26N 05°23' E 100°22'0 0.0
2018-Feb-10 07:56N 05°23' E 100°22'0 0.0
2018-Feb-10 07:26N 05°23' E 100°22'0 0.0
2018-Feb-10 06:56N 05°23' E 100°22'0 0.0
2018-Feb-10 06:26N 05°23' E 100°22'0 0.0
2018-Feb-10 05:56N 05°23' E 100°22'0 0.0
2018-Feb-10 05:26N 05°23' E 100°22'0 0.0
2018-Feb-10 04:56N 05°23' E 100°22'0 0.0
2018-Feb-10 04:26N 05°23' E 100°22'0 0.0
2018-Feb-10 03:56N 05°23' E 100°22'0 0.0
2018-Feb-10 03:26N 05°23' E 100°22'0 0.0
2018-Feb-10 02:56N 05°23' E 100°22'0 0.0
2018-Feb-10 02:26N 05°23' E 100°22'0 0.0
2018-Feb-10 01:56N 05°23' E 100°22'0 0.0
2018-Feb-10 01:26N 05°23' E 100°22'0 0.0
2018-Feb-10 00:56N 05°23' E 100°22'0 0.0
2018-Feb-10 00:26N 05°23' E 100°22'0 0.0
2018-Feb-09 23:56N 05°23' E 100°22'0 0.0
2018-Feb-09 23:26N 05°23' E 100°22'0 0.0
2018-Feb-09 22:56N 05°23' E 100°22'0 0.0
2018-Feb-09 22:38N 05°23' E 100°22'  

Dump ship's entire track history